Sun Village, California
Current Conditions -  °F | °C
As of 12:55 PM on Saturday 20 Dec 2014 (Local Time) from KGXA Reporting Station
Scattered Clouds Scattered Clouds  
Wind Chill: 55°   Ceiling: Unl
Heat Index: 55°   Visibility: 10mi
Dew Point: 44°   Wind: 8mph
Humidity: 65%   Direction: 290°WNW
Pressure: 30.12"   Gusts: NA
Location:  34.4078°N, 117.88°W
Report Text: KGXA 202055Z AUTO 29007KT 240V310 10SM SCT200 13/06 A3012 RMK AO2 SLP216 T01280064 58018 TSNO $
Loading
Personal Weather Stations






























Interactive Weather Map New forecast layout! Learn more

10-Day Weather Forecast

Advertisements
Track Severe Weather on mobile